Terminal Aerodrome Forecast
Issued by NWS

Home | Current Version | Previous Version | Text Only | Print | Product List | Glossary On
Versions: 1 2 3 4 5 6 7 8 9 10 11 12
000
FTUS41 KBTV 061730
TAFMSS
TAF
KMSS 061730Z 0618/0718 22004KT P6SM SCT250
     FM070700 00000KT P6SM OVC040
     FM071000 VRB03KT P6SM OVC030
     FM071400 21007KT P6SM VCSH OVC030=

USA.gov is the U.S. government's official web portal to all federal, state and local government web resources and services.